sensor_id;sensor_type;location;lat;lon;timestamp;P1;durP1;ratioP1;P2;durP2;ratioP2
6013;SDS011;3035;49.928;8.410;2023-06-19T00:01:13;8.83;;;6.30;;
6013;SDS011;3035;49.928;8.410;2023-06-19T00:03:41;8.17;;;7.37;;
6013;SDS011;3035;49.928;8.410;2023-06-19T00:06:09;7.80;;;6.67;;
6013;SDS011;3035;49.928;8.410;2023-06-19T00:08:38;7.13;;;6.43;;
6013;SDS011;3035;49.928;8.410;2023-06-19T00:11:06;7.53;;;5.90;;
6013;SDS011;3035;49.928;8.410;2023-06-19T00:13:34;9.50;;;6.90;;
6013;SDS011;3035;49.928;8.410;2023-06-19T00:16:02;12.03;;;6.40;;
6013;SDS011;3035;49.928;8.410;2023-06-19T00:18:30;7.10;;;6.40;;
6013;SDS011;3035;49.928;8.410;2023-06-19T00:20:59;7.00;;;6.23;;
6013;SDS011;3035;49.928;8.410;2023-06-19T00:23:27;9.23;;;6.00;;
6013;SDS011;3035;49.928;8.410;2023-06-19T00:25:55;9.90;;;7.33;;
6013;SDS011;3035;49.928;8.410;2023-06-19T00:28:23;8.70;;;6.00;;
6013;SDS011;3035;49.928;8.410;2023-06-19T00:30:51;9.57;;;6.67;;
6013;SDS011;3035;49.928;8.410;2023-06-19T00:33:20;11.77;;;7.10;;
6013;SDS011;3035;49.928;8.410;2023-06-19T00:35:50;9.27;;;6.80;;
6013;SDS011;3035;49.928;8.410;2023-06-19T00:38:18;12.30;;;7.00;;
6013;SDS011;3035;49.928;8.410;2023-06-19T00:40:46;9.40;;;6.47;;
6013;SDS011;3035;49.928;8.410;2023-06-19T00:43:14;20.70;;;6.83;;
6013;SDS011;3035;49.928;8.410;2023-06-19T00:45:42;14.57;;;7.83;;
6013;SDS011;3035;49.928;8.410;2023-06-19T00:48:11;10.63;;;6.00;;
6013;SDS011;3035;49.928;8.410;2023-06-19T00:50:39;9.93;;;6.60;;
6013;SDS011;3035;49.928;8.410;2023-06-19T00:53:07;8.97;;;6.47;;
6013;SDS011;3035;49.928;8.410;2023-06-19T00:55:35;10.63;;;7.47;;
6013;SDS011;3035;49.928;8.410;2023-06-19T00:58:03;18.23;;;6.63;;
6013;SDS011;3035;49.928;8.410;2023-06-19T01:00:32;9.10;;;7.10;;
6013;SDS011;3035;49.928;8.410;2023-06-19T01:03:00;11.50;;;6.90;;
6013;SDS011;3035;49.928;8.410;2023-06-19T01:05:28;9.50;;;6.60;;
6013;SDS011;3035;49.928;8.410;2023-06-19T01:08:04;11.20;;;6.67;;
6013;SDS011;3035;49.928;8.410;2023-06-19T01:10:33;11.90;;;6.50;;
6013;SDS011;3035;49.928;8.410;2023-06-19T01:13:06;11.27;;;7.23;;
6013;SDS011;3035;49.928;8.410;2023-06-19T01:15:34;10.83;;;6.40;;
6013;SDS011;3035;49.928;8.410;2023-06-19T01:18:01;14.60;;;6.70;;
6013;SDS011;3035;49.928;8.410;2023-06-19T01:20:29;7.67;;;6.17;;
6013;SDS011;3035;49.928;8.410;2023-06-19T01:23:04;9.90;;;7.33;;
6013;SDS011;3035;49.928;8.410;2023-06-19T01:25:40;10.33;;;6.70;;
6013;SDS011;3035;49.928;8.410;2023-06-19T01:28:09;11.00;;;6.93;;
6013;SDS011;3035;49.928;8.410;2023-06-19T01:30:38;11.10;;;6.50;;
6013;SDS011;3035;49.928;8.410;2023-06-19T01:33:09;10.03;;;6.33;;
6013;SDS011;3035;49.928;8.410;2023-06-19T01:35:38;8.27;;;6.07;;
6013;SDS011;3035;49.928;8.410;2023-06-19T01:38:06;11.87;;;6.50;;
6013;SDS011;3035;49.928;8.410;2023-06-19T01:40:34;10.93;;;7.20;;
6013;SDS011;3035;49.928;8.410;2023-06-19T01:43:03;11.67;;;6.93;;
6013;SDS011;3035;49.928;8.410;2023-06-19T01:45:31;8.80;;;6.97;;
6013;SDS011;3035;49.928;8.410;2023-06-19T01:47:59;7.30;;;6.23;;
6013;SDS011;3035;49.928;8.410;2023-06-19T01:50:27;12.77;;;7.60;;
6013;SDS011;3035;49.928;8.410;2023-06-19T01:52:55;12.67;;;7.67;;
6013;SDS011;3035;49.928;8.410;2023-06-19T01:55:24;15.87;;;7.20;;
6013;SDS011;3035;49.928;8.410;2023-06-19T01:57:52;9.83;;;6.53;;
6013;SDS011;3035;49.928;8.410;2023-06-19T02:00:20;10.77;;;6.80;;
6013;SDS011;3035;49.928;8.410;2023-06-19T02:02:48;17.00;;;7.27;;
6013;SDS011;3035;49.928;8.410;2023-06-19T02:05:16;16.83;;;7.90;;
6013;SDS011;3035;49.928;8.410;2023-06-19T02:07:45;15.87;;;6.83;;
6013;SDS011;3035;49.928;8.410;2023-06-19T02:10:13;11.97;;;7.73;;
6013;SDS011;3035;49.928;8.410;2023-06-19T02:12:41;9.53;;;6.70;;
6013;SDS011;3035;49.928;8.410;2023-06-19T02:15:09;15.10;;;7.17;;
6013;SDS011;3035;49.928;8.410;2023-06-19T02:17:37;9.13;;;7.10;;
6013;SDS011;3035;49.928;8.410;2023-06-19T02:20:06;10.50;;;6.13;;
6013;SDS011;3035;49.928;8.410;2023-06-19T02:22:35;16.33;;;6.03;;
6013;SDS011;3035;49.928;8.410;2023-06-19T02:25:03;15.50;;;6.63;;
6013;SDS011;3035;49.928;8.410;2023-06-19T02:27:32;9.03;;;6.37;;
6013;SDS011;3035;49.928;8.410;2023-06-19T02:30:00;14.00;;;6.50;;
6013;SDS011;3035;49.928;8.410;2023-06-19T02:32:28;12.00;;;6.57;;
6013;SDS011;3035;49.928;8.410;2023-06-19T02:34:57;9.00;;;6.03;;
6013;SDS011;3035;49.928;8.410;2023-06-19T02:37:24;13.33;;;6.43;;
6013;SDS011;3035;49.928;8.410;2023-06-19T02:39:53;9.77;;;5.90;;
6013;SDS011;3035;49.928;8.410;2023-06-19T02:42:21;11.30;;;6.33;;
6013;SDS011;3035;49.928;8.410;2023-06-19T02:44:49;6.83;;;5.50;;
6013;SDS011;3035;49.928;8.410;2023-06-19T02:47:17;7.07;;;5.50;;
6013;SDS011;3035;49.928;8.410;2023-06-19T02:49:45;8.87;;;6.20;;
6013;SDS011;3035;49.928;8.410;2023-06-19T02:52:14;13.93;;;6.37;;
6013;SDS011;3035;49.928;8.410;2023-06-19T02:54:42;9.53;;;5.63;;
6013;SDS011;3035;49.928;8.410;2023-06-19T02:57:10;6.73;;;6.00;;
6013;SDS011;3035;49.928;8.410;2023-06-19T02:59:38;20.33;;;6.60;;
6013;SDS011;3035;49.928;8.410;2023-06-19T03:02:07;14.63;;;6.17;;
6013;SDS011;3035;49.928;8.410;2023-06-19T03:04:35;10.03;;;5.43;;
6013;SDS011;3035;49.928;8.410;2023-06-19T03:07:03;9.63;;;6.27;;
6013;SDS011;3035;49.928;8.410;2023-06-19T03:09:32;9.40;;;6.30;;
6013;SDS011;3035;49.928;8.410;2023-06-19T03:12:00;7.00;;;6.30;;
6013;SDS011;3035;49.928;8.410;2023-06-19T03:14:28;17.83;;;6.57;;
6013;SDS011;3035;49.928;8.410;2023-06-19T03:16:56;9.60;;;6.50;;
6013;SDS011;3035;49.928;8.410;2023-06-19T03:19:24;26.67;;;6.30;;
6013;SDS011;3035;49.928;8.410;2023-06-19T03:21:53;13.13;;;6.17;;
6013;SDS011;3035;49.928;8.410;2023-06-19T03:24:21;7.27;;;6.17;;
6013;SDS011;3035;49.928;8.410;2023-06-19T03:26:49;12.67;;;5.77;;
6013;SDS011;3035;49.928;8.410;2023-06-19T03:29:17;18.93;;;6.80;;
6013;SDS011;3035;49.928;8.410;2023-06-19T03:31:45;11.10;;;6.83;;
6013;SDS011;3035;49.928;8.410;2023-06-19T03:34:14;19.27;;;5.97;;
6013;SDS011;3035;49.928;8.410;2023-06-19T03:36:42;8.43;;;6.33;;
6013;SDS011;3035;49.928;8.410;2023-06-19T03:39:10;7.07;;;5.70;;
6013;SDS011;3035;49.928;8.410;2023-06-19T03:41:38;9.40;;;6.37;;
6013;SDS011;3035;49.928;8.410;2023-06-19T03:44:06;17.43;;;6.50;;
6013;SDS011;3035;49.928;8.410;2023-06-19T03:46:35;9.63;;;6.23;;
6013;SDS011;3035;49.928;8.410;2023-06-19T03:49:03;7.90;;;6.00;;
6013;SDS011;3035;49.928;8.410;2023-06-19T03:51:32;9.67;;;6.00;;
6013;SDS011;3035;49.928;8.410;2023-06-19T03:53:59;22.73;;;5.77;;
6013;SDS011;3035;49.928;8.410;2023-06-19T03:56:28;18.13;;;6.47;;
6013;SDS011;3035;49.928;8.410;2023-06-19T03:58:56;8.97;;;6.40;;
6013;SDS011;3035;49.928;8.410;2023-06-19T04:01:25;12.20;;;6.87;;
6013;SDS011;3035;49.928;8.410;2023-06-19T04:03:54;24.67;;;6.40;;
6013;SDS011;3035;49.928;8.410;2023-06-19T04:06:22;11.07;;;6.50;;
6013;SDS011;3035;49.928;8.410;2023-06-19T04:08:51;16.53;;;6.37;;
6013;SDS011;3035;49.928;8.410;2023-06-19T04:11:21;11.50;;;7.33;;
6013;SDS011;3035;49.928;8.410;2023-06-19T04:13:49;9.53;;;7.00;;
6013;SDS011;3035;49.928;8.410;2023-06-19T04:16:18;8.93;;;6.20;;
6013;SDS011;3035;49.928;8.410;2023-06-19T04:18:47;13.27;;;5.97;;
6013;SDS011;3035;49.928;8.410;2023-06-19T04:21:15;9.23;;;6.27;;
6013;SDS011;3035;49.928;8.410;2023-06-19T04:23:43;9.43;;;5.30;;
6013;SDS011;3035;49.928;8.410;2023-06-19T04:26:12;7.80;;;5.60;;
6013;SDS011;3035;49.928;8.410;2023-06-19T04:28:40;12.80;;;5.30;;
6013;SDS011;3035;49.928;8.410;2023-06-19T04:31:09;5.67;;;4.57;;
6013;SDS011;3035;49.928;8.410;2023-06-19T04:33:37;7.37;;;4.80;;
6013;SDS011;3035;49.928;8.410;2023-06-19T04:36:07;4.47;;;3.90;;
6013;SDS011;3035;49.928;8.410;2023-06-19T04:38:36;7.90;;;4.13;;
6013;SDS011;3035;49.928;8.410;2023-06-19T04:41:04;7.97;;;4.63;;
6013;SDS011;3035;49.928;8.410;2023-06-19T04:43:32;4.63;;;3.90;;
6013;SDS011;3035;49.928;8.410;2023-06-19T04:46:00;6.00;;;4.10;;
6013;SDS011;3035;49.928;8.410;2023-06-19T04:48:29;5.60;;;3.83;;
6013;SDS011;3035;49.928;8.410;2023-06-19T04:50:57;4.63;;;3.93;;
6013;SDS011;3035;49.928;8.410;2023-06-19T04:53:25;5.93;;;3.90;;
6013;SDS011;3035;49.928;8.410;2023-06-19T04:55:53;4.23;;;3.67;;
6013;SDS011;3035;49.928;8.410;2023-06-19T04:58:21;4.60;;;3.43;;
6013;SDS011;3035;49.928;8.410;2023-06-19T05:00:50;4.90;;;3.43;;
6013;SDS011;3035;49.928;8.410;2023-06-19T05:03:18;4.50;;;4.03;;
6013;SDS011;3035;49.928;8.410;2023-06-19T05:05:46;4.27;;;3.63;;
6013;SDS011;3035;49.928;8.410;2023-06-19T05:08:14;3.23;;;2.73;;
6013;SDS011;3035;49.928;8.410;2023-06-19T05:10:42;6.10;;;3.80;;
6013;SDS011;3035;49.928;8.410;2023-06-19T05:13:11;6.47;;;3.40;;
6013;SDS011;3035;49.928;8.410;2023-06-19T05:15:39;9.73;;;3.60;;
6013;SDS011;3035;49.928;8.410;2023-06-19T05:18:07;6.70;;;3.00;;
6013;SDS011;3035;49.928;8.410;2023-06-19T05:20:35;5.73;;;4.17;;
6013;SDS011;3035;49.928;8.410;2023-06-19T05:23:03;17.80;;;3.30;;
6013;SDS011;3035;49.928;8.410;2023-06-19T05:25:32;3.57;;;2.90;;
6013;SDS011;3035;49.928;8.410;2023-06-19T05:28:00;5.70;;;3.50;;
6013;SDS011;3035;49.928;8.410;2023-06-19T05:30:28;3.50;;;3.00;;
6013;SDS011;3035;49.928;8.410;2023-06-19T05:32:56;6.10;;;3.80;;
6013;SDS011;3035;49.928;8.410;2023-06-19T05:35:25;3.40;;;2.97;;
6013;SDS011;3035;49.928;8.410;2023-06-19T05:37:53;4.30;;;3.53;;
6013;SDS011;3035;49.928;8.410;2023-06-19T05:40:22;21.83;;;3.33;;
6013;SDS011;3035;49.928;8.410;2023-06-19T05:42:50;5.20;;;3.13;;
6013;SDS011;3035;49.928;8.410;2023-06-19T05:45:18;5.00;;;2.73;;
6013;SDS011;3035;49.928;8.410;2023-06-19T05:47:46;7.90;;;2.73;;
6013;SDS011;3035;49.928;8.410;2023-06-19T05:50:15;4.30;;;3.50;;
6013;SDS011;3035;49.928;8.410;2023-06-19T05:52:43;4.20;;;3.43;;
6013;SDS011;3035;49.928;8.410;2023-06-19T05:55:11;4.67;;;3.90;;
6013;SDS011;3035;49.928;8.410;2023-06-19T05:57:39;3.97;;;3.20;;
6013;SDS011;3035;49.928;8.410;2023-06-19T06:00:08;8.83;;;4.13;;
6013;SDS011;3035;49.928;8.410;2023-06-19T06:02:38;4.90;;;3.13;;
6013;SDS011;3035;49.928;8.410;2023-06-19T06:05:07;5.77;;;3.30;;
6013;SDS011;3035;49.928;8.410;2023-06-19T06:07:35;8.17;;;3.53;;
6013;SDS011;3035;49.928;8.410;2023-06-19T06:10:04;5.70;;;3.83;;
6013;SDS011;3035;49.928;8.410;2023-06-19T06:12:33;5.13;;;4.10;;
6013;SDS011;3035;49.928;8.410;2023-06-19T06:15:02;4.80;;;3.17;;
6013;SDS011;3035;49.928;8.410;2023-06-19T06:17:30;4.70;;;3.50;;
6013;SDS011;3035;49.928;8.410;2023-06-19T06:19:58;4.43;;;3.37;;
6013;SDS011;3035;49.928;8.410;2023-06-19T06:22:26;6.90;;;3.67;;
6013;SDS011;3035;49.928;8.410;2023-06-19T06:24:54;3.70;;;3.23;;
6013;SDS011;3035;49.928;8.410;2023-06-19T06:27:22;5.07;;;3.60;;
6013;SDS011;3035;49.928;8.410;2023-06-19T06:29:51;5.17;;;3.77;;
6013;SDS011;3035;49.928;8.410;2023-06-19T06:32:19;6.87;;;3.90;;
6013;SDS011;3035;49.928;8.410;2023-06-19T06:34:47;4.77;;;3.67;;
6013;SDS011;3035;49.928;8.410;2023-06-19T06:37:16;6.53;;;3.67;;
6013;SDS011;3035;49.928;8.410;2023-06-19T06:39:44;5.37;;;3.37;;
6013;SDS011;3035;49.928;8.410;2023-06-19T06:42:12;4.00;;;3.60;;
6013;SDS011;3035;49.928;8.410;2023-06-19T06:44:40;4.13;;;3.67;;
6013;SDS011;3035;49.928;8.410;2023-06-19T06:47:08;4.60;;;3.23;;
6013;SDS011;3035;49.928;8.410;2023-06-19T06:49:37;5.00;;;3.30;;
6013;SDS011;3035;49.928;8.410;2023-06-19T06:52:05;5.30;;;4.30;;
6013;SDS011;3035;49.928;8.410;2023-06-19T06:54:33;4.27;;;3.73;;
6013;SDS011;3035;49.928;8.410;2023-06-19T06:57:02;7.03;;;3.43;;
6013;SDS011;3035;49.928;8.410;2023-06-19T06:59:30;3.67;;;3.27;;
6013;SDS011;3035;49.928;8.410;2023-06-19T07:01:58;13.23;;;4.00;;
6013;SDS011;3035;49.928;8.410;2023-06-19T07:04:26;4.43;;;3.30;;
6013;SDS011;3035;49.928;8.410;2023-06-19T07:06:55;6.83;;;3.63;;
6013;SDS011;3035;49.928;8.410;2023-06-19T07:09:23;5.37;;;3.20;;
6013;SDS011;3035;49.928;8.410;2023-06-19T07:11:51;4.97;;;3.40;;
6013;SDS011;3035;49.928;8.410;2023-06-19T07:14:19;4.37;;;3.47;;
6013;SDS011;3035;49.928;8.410;2023-06-19T07:16:48;9.97;;;3.43;;
6013;SDS011;3035;49.928;8.410;2023-06-19T07:19:16;4.70;;;3.23;;
6013;SDS011;3035;49.928;8.410;2023-06-19T07:21:44;4.87;;;3.50;;
6013;SDS011;3035;49.928;8.410;2023-06-19T07:24:12;5.73;;;3.13;;
6013;SDS011;3035;49.928;8.410;2023-06-19T07:26:40;4.20;;;3.17;;
6013;SDS011;3035;49.928;8.410;2023-06-19T07:29:08;4.97;;;3.50;;
6013;SDS011;3035;49.928;8.410;2023-06-19T07:31:37;8.50;;;3.50;;
6013;SDS011;3035;49.928;8.410;2023-06-19T07:34:05;4.30;;;3.30;;
6013;SDS011;3035;49.928;8.410;2023-06-19T07:36:33;3.40;;;3.07;;
6013;SDS011;3035;49.928;8.410;2023-06-19T07:39:02;4.23;;;3.30;;
6013;SDS011;3035;49.928;8.410;2023-06-19T07:41:29;4.10;;;3.33;;
6013;SDS011;3035;49.928;8.410;2023-06-19T07:43:58;8.00;;;3.30;;
6013;SDS011;3035;49.928;8.410;2023-06-19T07:46:26;7.30;;;3.90;;
6013;SDS011;3035;49.928;8.410;2023-06-19T07:48:54;6.83;;;3.90;;
6013;SDS011;3035;49.928;8.410;2023-06-19T07:51:22;3.97;;;3.57;;
6013;SDS011;3035;49.928;8.410;2023-06-19T07:53:50;4.10;;;3.60;;
6013;SDS011;3035;49.928;8.410;2023-06-19T07:56:19;14.53;;;3.77;;
6013;SDS011;3035;49.928;8.410;2023-06-19T07:58:47;3.77;;;3.40;;
6013;SDS011;3035;49.928;8.410;2023-06-19T08:01:15;4.17;;;3.43;;
6013;SDS011;3035;49.928;8.410;2023-06-19T08:03:43;5.00;;;3.50;;
6013;SDS011;3035;49.928;8.410;2023-06-19T08:06:11;5.97;;;3.97;;
6013;SDS011;3035;49.928;8.410;2023-06-19T08:08:40;8.93;;;3.80;;
6013;SDS011;3035;49.928;8.410;2023-06-19T08:11:08;6.10;;;3.97;;
6013;SDS011;3035;49.928;8.410;2023-06-19T08:13:36;4.93;;;3.87;;
6013;SDS011;3035;49.928;8.410;2023-06-19T08:16:04;7.10;;;3.63;;
6013;SDS011;3035;49.928;8.410;2023-06-19T08:18:32;8.77;;;3.90;;
6013;SDS011;3035;49.928;8.410;2023-06-19T08:21:01;6.00;;;3.63;;
6013;SDS011;3035;49.928;8.410;2023-06-19T08:23:29;3.97;;;3.20;;
6013;SDS011;3035;49.928;8.410;2023-06-19T08:25:57;4.20;;;3.23;;
6013;SDS011;3035;49.928;8.410;2023-06-19T08:28:25;5.10;;;3.73;;
6013;SDS011;3035;49.928;8.410;2023-06-19T08:30:53;5.20;;;3.50;;
6013;SDS011;3035;49.928;8.410;2023-06-19T08:33:22;3.60;;;3.27;;
6013;SDS011;3035;49.928;8.410;2023-06-19T08:35:50;7.57;;;3.80;;
6013;SDS011;3035;49.928;8.410;2023-06-19T08:38:18;4.70;;;3.47;;
6013;SDS011;3035;49.928;8.410;2023-06-19T08:40:46;7.30;;;3.37;;
6013;SDS011;3035;49.928;8.410;2023-06-19T08:43:14;8.43;;;3.30;;
6013;SDS011;3035;49.928;8.410;2023-06-19T08:45:43;6.50;;;3.90;;
6013;SDS011;3035;49.928;8.410;2023-06-19T08:48:13;3.90;;;3.47;;
6013;SDS011;3035;49.928;8.410;2023-06-19T08:50:39;3.87;;;3.00;;
6013;SDS011;3035;49.928;8.410;2023-06-19T08:53:07;4.00;;;3.53;;
6013;SDS011;3035;49.928;8.410;2023-06-19T08:55:36;3.93;;;3.53;;
6013;SDS011;3035;49.928;8.410;2023-06-19T08:58:04;5.07;;;3.37;;
6013;SDS011;3035;49.928;8.410;2023-06-19T09:00:32;3.77;;;3.43;;
6013;SDS011;3035;49.928;8.410;2023-06-19T09:03:01;6.30;;;3.60;;
6013;SDS011;3035;49.928;8.410;2023-06-19T09:05:28;3.90;;;3.30;;
6013;SDS011;3035;49.928;8.410;2023-06-19T09:07:58;4.77;;;3.60;;
6013;SDS011;3035;49.928;8.410;2023-06-19T09:10:26;9.13;;;3.10;;
6013;SDS011;3035;49.928;8.410;2023-06-19T09:12:56;5.90;;;3.30;;
6013;SDS011;3035;49.928;8.410;2023-06-19T09:15:27;3.80;;;3.40;;
6013;SDS011;3035;49.928;8.410;2023-06-19T09:18:00;4.87;;;3.20;;
6013;SDS011;3035;49.928;8.410;2023-06-19T09:20:32;5.90;;;4.17;;
6013;SDS011;3035;49.928;8.410;2023-06-19T09:23:02;6.27;;;3.60;;
6013;SDS011;3035;49.928;8.410;2023-06-19T09:25:30;4.83;;;3.10;;
6013;SDS011;3035;49.928;8.410;2023-06-19T09:27:58;5.73;;;3.03;;
6013;SDS011;3035;49.928;8.410;2023-06-19T09:30:27;7.50;;;3.33;;
6013;SDS011;3035;49.928;8.410;2023-06-19T09:32:55;4.40;;;3.23;;
6013;SDS011;3035;49.928;8.410;2023-06-19T09:35:23;3.30;;;3.00;;
6013;SDS011;3035;49.928;8.410;2023-06-19T09:37:51;5.33;;;3.30;;
6013;SDS011;3035;49.928;8.410;2023-06-19T09:40:19;4.73;;;3.00;;
6013;SDS011;3035;49.928;8.410;2023-06-19T09:42:48;4.33;;;3.77;;
6013;SDS011;3035;49.928;8.410;2023-06-19T09:45:16;5.17;;;3.47;;
6013;SDS011;3035;49.928;8.410;2023-06-19T09:47:45;6.23;;;3.67;;
6013;SDS011;3035;49.928;8.410;2023-06-19T09:50:13;3.97;;;3.03;;
6013;SDS011;3035;49.928;8.410;2023-06-19T09:52:41;5.93;;;3.70;;
6013;SDS011;3035;49.928;8.410;2023-06-19T09:55:09;2.97;;;2.67;;
6013;SDS011;3035;49.928;8.410;2023-06-19T09:57:37;6.50;;;3.40;;
6013;SDS011;3035;49.928;8.410;2023-06-19T10:00:05;3.67;;;3.37;;
6013;SDS011;3035;49.928;8.410;2023-06-19T10:02:41;5.77;;;3.10;;
6013;SDS011;3035;49.928;8.410;2023-06-19T10:05:10;3.40;;;3.10;;
6013;SDS011;3035;49.928;8.410;2023-06-19T10:07:40;9.70;;;3.53;;
6013;SDS011;3035;49.928;8.410;2023-06-19T10:10:11;4.00;;;3.10;;
6013;SDS011;3035;49.928;8.410;2023-06-19T10:12:40;10.43;;;3.10;;
6013;SDS011;3035;49.928;8.410;2023-06-19T10:15:09;5.20;;;3.20;;
6013;SDS011;3035;49.928;8.410;2023-06-19T10:17:46;4.10;;;3.33;;
6013;SDS011;3035;49.928;8.410;2023-06-19T10:20:20;3.20;;;2.90;;
6013;SDS011;3035;49.928;8.410;2023-06-19T10:22:58;7.00;;;2.90;;
6013;SDS011;3035;49.928;8.410;2023-06-19T10:25:28;7.10;;;2.97;;
6013;SDS011;3035;49.928;8.410;2023-06-19T10:27:55;4.40;;;2.77;;
6013;SDS011;3035;49.928;8.410;2023-06-19T10:30:23;6.20;;;3.10;;
6013;SDS011;3035;49.928;8.410;2023-06-19T10:32:52;8.13;;;3.13;;
6013;SDS011;3035;49.928;8.410;2023-06-19T10:35:20;3.50;;;2.87;;
6013;SDS011;3035;49.928;8.410;2023-06-19T10:37:48;9.43;;;2.97;;
6013;SDS011;3035;49.928;8.410;2023-06-19T10:40:16;6.17;;;3.30;;
6013;SDS011;3035;49.928;8.410;2023-06-19T10:42:44;6.30;;;3.03;;
6013;SDS011;3035;49.928;8.410;2023-06-19T10:45:13;8.30;;;3.27;;
6013;SDS011;3035;49.928;8.410;2023-06-19T10:47:43;3.17;;;2.87;;
6013;SDS011;3035;49.928;8.410;2023-06-19T10:50:12;14.23;;;3.17;;
6013;SDS011;3035;49.928;8.410;2023-06-19T10:52:41;5.70;;;3.50;;
6013;SDS011;3035;49.928;8.410;2023-06-19T10:55:11;6.10;;;3.30;;
6013;SDS011;3035;49.928;8.410;2023-06-19T10:57:39;5.33;;;2.90;;
6013;SDS011;3035;49.928;8.410;2023-06-19T11:00:07;5.23;;;3.30;;
6013;SDS011;3035;49.928;8.410;2023-06-19T11:02:39;8.13;;;3.20;;
6013;SDS011;3035;49.928;8.410;2023-06-19T11:05:08;8.70;;;3.40;;
6013;SDS011;3035;49.928;8.410;2023-06-19T11:07:37;12.20;;;3.30;;
6013;SDS011;3035;49.928;8.410;2023-06-19T11:10:05;4.27;;;3.53;;
6013;SDS011;3035;49.928;8.410;2023-06-19T11:12:34;8.07;;;3.50;;
6013;SDS011;3035;49.928;8.410;2023-06-19T11:15:03;6.00;;;3.43;;
6013;SDS011;3035;49.928;8.410;2023-06-19T11:17:31;5.27;;;2.93;;
6013;SDS011;3035;49.928;8.410;2023-06-19T11:19:59;6.33;;;2.87;;
6013;SDS011;3035;49.928;8.410;2023-06-19T11:22:37;14.00;;;3.10;;
6013;SDS011;3035;49.928;8.410;2023-06-19T11:25:05;11.23;;;3.50;;
6013;SDS011;3035;49.928;8.410;2023-06-19T11:27:36;6.63;;;3.57;;
6013;SDS011;3035;49.928;8.410;2023-06-19T11:30:02;5.07;;;3.10;;
6013;SDS011;3035;49.928;8.410;2023-06-19T11:32:31;4.10;;;2.67;;
6013;SDS011;3035;49.928;8.410;2023-06-19T11:35:04;21.70;;;3.00;;
6013;SDS011;3035;49.928;8.410;2023-06-19T11:37:29;5.03;;;2.53;;
6013;SDS011;3035;49.928;8.410;2023-06-19T11:39:55;2.90;;;2.40;;
6013;SDS011;3035;49.928;8.410;2023-06-19T11:42:23;3.80;;;2.53;;
6013;SDS011;3035;49.928;8.410;2023-06-19T11:44:55;5.67;;;2.10;;
6013;SDS011;3035;49.928;8.410;2023-06-19T11:47:23;11.83;;;3.00;;
6013;SDS011;3035;49.928;8.410;2023-06-19T11:49:51;2.97;;;2.57;;
6013;SDS011;3035;49.928;8.410;2023-06-19T11:52:20;3.40;;;2.20;;
6013;SDS011;3035;49.928;8.410;2023-06-19T11:54:48;5.27;;;2.40;;
6013;SDS011;3035;49.928;8.410;2023-06-19T11:57:16;4.53;;;2.33;;
6013;SDS011;3035;49.928;8.410;2023-06-19T11:59:44;3.30;;;2.50;;
6013;SDS011;3035;49.928;8.410;2023-06-19T12:02:12;3.97;;;2.40;;
6013;SDS011;3035;49.928;8.410;2023-06-19T12:04:41;2.90;;;2.53;;
6013;SDS011;3035;49.928;8.410;2023-06-19T12:07:09;3.57;;;2.13;;
6013;SDS011;3035;49.928;8.410;2023-06-19T12:09:37;7.67;;;2.23;;
6013;SDS011;3035;49.928;8.410;2023-06-19T12:12:06;3.60;;;2.13;;
6013;SDS011;3035;49.928;8.410;2023-06-19T12:14:35;2.30;;;2.10;;
6013;SDS011;3035;49.928;8.410;2023-06-19T12:17:03;3.70;;;2.33;;
6013;SDS011;3035;49.928;8.410;2023-06-19T12:19:31;2.57;;;2.37;;
6013;SDS011;3035;49.928;8.410;2023-06-19T12:21:59;2.60;;;2.10;;
6013;SDS011;3035;49.928;8.410;2023-06-19T12:24:28;5.57;;;2.10;;
6013;SDS011;3035;49.928;8.410;2023-06-19T12:26:56;2.40;;;2.20;;
6013;SDS011;3035;49.928;8.410;2023-06-19T12:29:24;3.70;;;2.37;;
6013;SDS011;3035;49.928;8.410;2023-06-19T12:31:52;2.43;;;2.23;;
6013;SDS011;3035;49.928;8.410;2023-06-19T12:34:20;2.80;;;1.97;;
6013;SDS011;3035;49.928;8.410;2023-06-19T12:36:49;3.40;;;2.10;;
6013;SDS011;3035;49.928;8.410;2023-06-19T12:39:17;8.90;;;2.73;;
6013;SDS011;3035;49.928;8.410;2023-06-19T12:41:46;7.37;;;3.23;;
6013;SDS011;3035;49.928;8.410;2023-06-19T12:44:14;2.83;;;2.00;;
6013;SDS011;3035;49.928;8.410;2023-06-19T12:46:42;3.00;;;2.47;;
6013;SDS011;3035;49.928;8.410;2023-06-19T12:49:10;8.20;;;2.73;;
6013;SDS011;3035;49.928;8.410;2023-06-19T12:51:39;3.70;;;2.13;;
6013;SDS011;3035;49.928;8.410;2023-06-19T12:54:07;2.77;;;2.50;;
6013;SDS011;3035;49.928;8.410;2023-06-19T12:56:35;3.10;;;2.43;;
6013;SDS011;3035;49.928;8.410;2023-06-19T12:59:03;2.50;;;2.30;;
6013;SDS011;3035;49.928;8.410;2023-06-19T13:01:31;4.80;;;2.37;;
6013;SDS011;3035;49.928;8.410;2023-06-19T13:04:00;23.17;;;3.13;;
6013;SDS011;3035;49.928;8.410;2023-06-19T13:06:28;4.17;;;2.33;;
6013;SDS011;3035;49.928;8.410;2023-06-19T13:08:56;2.40;;;2.20;;
6013;SDS011;3035;49.928;8.410;2023-06-19T13:11:24;6.97;;;2.60;;
6013;SDS011;3035;49.928;8.410;2023-06-19T13:13:53;2.70;;;2.50;;
6013;SDS011;3035;49.928;8.410;2023-06-19T13:16:21;2.73;;;2.07;;
6013;SDS011;3035;49.928;8.410;2023-06-19T13:18:49;3.40;;;2.40;;
6013;SDS011;3035;49.928;8.410;2023-06-19T13:21:17;3.17;;;2.67;;
6013;SDS011;3035;49.928;8.410;2023-06-19T13:23:45;3.30;;;2.37;;
6013;SDS011;3035;49.928;8.410;2023-06-19T13:26:14;4.00;;;2.20;;
6013;SDS011;3035;49.928;8.410;2023-06-19T13:28:42;4.73;;;2.20;;
6013;SDS011;3035;49.928;8.410;2023-06-19T13:31:10;5.47;;;2.67;;
6013;SDS011;3035;49.928;8.410;2023-06-19T13:33:38;4.57;;;2.10;;
6013;SDS011;3035;49.928;8.410;2023-06-19T13:36:06;10.50;;;2.63;;
6013;SDS011;3035;49.928;8.410;2023-06-19T13:38:35;3.03;;;2.20;;
6013;SDS011;3035;49.928;8.410;2023-06-19T13:41:03;2.60;;;2.40;;
6013;SDS011;3035;49.928;8.410;2023-06-19T13:43:31;4.47;;;2.30;;
6013;SDS011;3035;49.928;8.410;2023-06-19T13:45:59;4.07;;;2.33;;
6013;SDS011;3035;49.928;8.410;2023-06-19T13:48:27;10.87;;;2.37;;
6013;SDS011;3035;49.928;8.410;2023-06-19T13:50:56;2.60;;;2.40;;
6013;SDS011;3035;49.928;8.410;2023-06-19T13:53:24;3.83;;;2.10;;
6013;SDS011;3035;49.928;8.410;2023-06-19T13:55:53;2.37;;;2.17;;
6013;SDS011;3035;49.928;8.410;2023-06-19T13:58:22;2.90;;;2.20;;
6013;SDS011;3035;49.928;8.410;2023-06-19T14:00:50;2.50;;;2.30;;
6013;SDS011;3035;49.928;8.410;2023-06-19T14:03:19;3.63;;;2.37;;
6013;SDS011;3035;49.928;8.410;2023-06-19T14:05:47;3.10;;;2.50;;
6013;SDS011;3035;49.928;8.410;2023-06-19T14:08:15;3.40;;;2.53;;
6013;SDS011;3035;49.928;8.410;2023-06-19T14:10:44;8.53;;;2.73;;
6013;SDS011;3035;49.928;8.410;2023-06-19T14:13:13;3.13;;;2.77;;
6013;SDS011;3035;49.928;8.410;2023-06-19T14:15:41;2.90;;;2.40;;
6013;SDS011;3035;49.928;8.410;2023-06-19T14:18:09;2.03;;;1.93;;
6013;SDS011;3035;49.928;8.410;2023-06-19T14:20:38;4.07;;;2.63;;
6013;SDS011;3035;49.928;8.410;2023-06-19T14:23:06;3.00;;;2.20;;
6013;SDS011;3035;49.928;8.410;2023-06-19T14:25:34;11.63;;;2.30;;
6013;SDS011;3035;49.928;8.410;2023-06-19T14:28:03;4.13;;;2.40;;
6013;SDS011;3035;49.928;8.410;2023-06-19T14:30:31;9.00;;;2.80;;
6013;SDS011;3035;49.928;8.410;2023-06-19T14:32:59;3.47;;;2.30;;
6013;SDS011;3035;49.928;8.410;2023-06-19T14:35:27;6.90;;;2.73;;
6013;SDS011;3035;49.928;8.410;2023-06-19T14:37:55;19.27;;;2.40;;
6013;SDS011;3035;49.928;8.410;2023-06-19T14:40:24;7.43;;;2.43;;
6013;SDS011;3035;49.928;8.410;2023-06-19T14:42:52;2.20;;;2.10;;
6013;SDS011;3035;49.928;8.410;2023-06-19T14:45:20;2.83;;;2.20;;
6013;SDS011;3035;49.928;8.410;2023-06-19T14:47:48;4.20;;;1.93;;
6013;SDS011;3035;49.928;8.410;2023-06-19T14:50:16;3.00;;;2.00;;
6013;SDS011;3035;49.928;8.410;2023-06-19T14:52:45;2.73;;;2.53;;
6013;SDS011;3035;49.928;8.410;2023-06-19T14:55:13;2.90;;;2.40;;
6013;SDS011;3035;49.928;8.410;2023-06-19T14:57:41;2.17;;;1.97;;
6013;SDS011;3035;49.928;8.410;2023-06-19T15:00:10;3.80;;;2.20;;
6013;SDS011;3035;49.928;8.410;2023-06-19T15:02:38;3.57;;;2.40;;
6013;SDS011;3035;49.928;8.410;2023-06-19T15:05:07;2.60;;;2.40;;
6013;SDS011;3035;49.928;8.410;2023-06-19T15:07:35;3.50;;;2.60;;
6013;SDS011;3035;49.928;8.410;2023-06-19T15:10:03;3.23;;;2.83;;
6013;SDS011;3035;49.928;8.410;2023-06-19T15:12:32;4.13;;;2.83;;
6013;SDS011;3035;49.928;8.410;2023-06-19T15:15:00;2.30;;;2.10;;
6013;SDS011;3035;49.928;8.410;2023-06-19T15:17:28;7.43;;;2.77;;
6013;SDS011;3035;49.928;8.410;2023-06-19T15:19:56;4.30;;;2.10;;